首页
METAR-TAF:

METAR-TAF

机场 :

纳塔尔, 北里约格朗德, 巴西

纬度: 05-46-05S, 经度: 035-22-34W, 海拔: 88米

当前天气观测

该预报发布于57分钟前的14:35 UTC
风速15节,风向,有时为30节阵风,在南转南东南转西南之间变化
温度 26°C
湿度 79%
气压 1018 hPa
能見度: 5000
多云层高于3000英尺
少量云层高于3300英尺, 塔状积云.
多云层高于7000英尺
小阵雨, 轻雾

METAR: SBSG 161435Z 17015G30KT 150V210 5000 -SHRA BR BKN030 FEW033TCU BKN070 26/22 Q1018

时间: 12:32 (15:32 UTC)

预报

该预报发布于5小时和32分钟前的10:00 UTC
预报有效从16日的 12点(UTC)到 17日的 12点(UTC)
风速13节,风向南转南东
能见度10公里或以上
散云层高于2500英尺
成为
从 17日的 00点(UTC)到 17日的 02点(UTC)
风速5节,风向南转西南

TAF: SBSG 161000Z 1612/1712 16013KT 9999 SCT025 TX29/1616Z TN22/1708Z BECMG 1700/1702 21005KT RMK PCH

超过4000个机场的气象观测和天气预报(METAR&TAF报告)。

可查询的气象台以黄色和红色小点在地图上表示。

将鼠标移到小点上方,可查看气象台名称。

然后点击查看天气观测和预报。

如需切换地图:点击带黑十字的绿色按钮放大地图;点击带横线的绿色按钮缩小地图;或者点击绿色箭头查看邻近地区的地图。


METAR-TAF: